createdAt,value
2022-11-27T00:01:19.119Z,99327.97
2022-11-27T00:03:46.339Z,99321.03
2022-11-27T00:06:19.271Z,99315.06
2022-11-27T00:08:46.609Z,99311.59
2022-11-27T00:11:16.437Z,99308.34
2022-11-27T00:13:43.332Z,99308.09
2022-11-27T00:16:10.370Z,99306.66
2022-11-27T00:18:37.572Z,99295.47
2022-11-27T00:21:06.321Z,99277.47
2022-11-27T00:23:33.435Z,99300.97
2022-11-27T00:25:59.903Z,99298.78
2022-11-27T00:28:28.928Z,99290.72
2022-11-27T00:31:04.465Z,99293.00
2022-11-27T00:33:31.582Z,99296.19
2022-11-27T00:36:03.201Z,99293.72
2022-11-27T00:38:30.482Z,99284.59
2022-11-27T00:41:15.597Z,99280.56
2022-11-27T00:43:45.027Z,99279.56
2022-11-27T00:46:13.712Z,99275.44
2022-11-27T00:48:40.659Z,99274.34
2022-11-27T00:51:08.879Z,99266.00
2022-11-27T00:53:35.751Z,99272.38
2022-11-27T00:56:02.676Z,99271.72
2022-11-27T00:58:30.521Z,99263.78
2022-11-27T01:00:59.009Z,99270.38
2022-11-27T01:03:26.515Z,99257.47
2022-11-27T01:05:53.173Z,99261.19
2022-11-27T01:08:19.900Z,99253.88
2022-11-27T01:10:54.766Z,99264.75
2022-11-27T01:13:26.942Z,99253.53
2022-11-27T01:16:06.113Z,99256.88
2022-11-27T01:18:34.050Z,99245.63
2022-11-27T01:21:00.842Z,99261.50
2022-11-27T01:23:27.593Z,99257.56
2022-11-27T01:25:55.112Z,99262.03
2022-11-27T01:28:24.596Z,99272.75
2022-11-27T01:30:51.885Z,99272.16
2022-11-27T01:33:19.024Z,99263.22
2022-11-27T01:36:00.043Z,99253.00
2022-11-27T01:38:27.682Z,99258.09
2022-11-27T01:40:59.589Z,99259.94
2022-11-27T01:43:47.858Z,99251.03
2022-11-27T01:46:40.379Z,99248.53
2022-11-27T01:49:09.872Z,99249.66
2022-11-27T01:51:39.905Z,99247.38
2022-11-27T01:54:09.159Z,99223.59
2022-11-27T01:56:36.278Z,99261.59
2022-11-27T01:59:03.744Z,99261.28
2022-11-27T02:01:30.336Z,99267.34
2022-11-27T02:03:59.507Z,99263.22
2022-11-27T02:06:26.105Z,99261.91
2022-11-27T02:08:52.785Z,99258.59
2022-11-27T02:11:25.696Z,99259.59
2022-11-27T02:14:26.467Z,99263.56
2022-11-27T02:17:02.828Z,99272.97
2022-11-27T02:20:20.554Z,99257.31
2022-11-27T02:22:46.958Z,99258.28
2022-11-27T02:25:18.138Z,99251.16
2022-11-27T02:28:02.469Z,99235.19
2022-11-27T02:30:35.434Z,99242.34
2022-11-27T02:33:09.310Z,99230.97
2022-11-27T02:35:48.005Z,99226.44
2022-11-27T02:38:23.175Z,99224.56
2022-11-27T02:40:56.204Z,99225.59
2022-11-27T02:43:29.539Z,99222.63
2022-11-27T02:45:57.681Z,99209.88
2022-11-27T02:48:31.206Z,99218.13
2022-11-27T02:50:57.665Z,99215.69
2022-11-27T02:53:39.317Z,99208.75
2022-11-27T02:56:14.701Z,99207.81
2022-11-27T02:58:42.176Z,99207.81
2022-11-27T03:01:12.373Z,99197.38
2022-11-27T03:03:44.112Z,99201.19
2022-11-27T03:06:14.240Z,99202.00
2022-11-27T03:08:56.677Z,99189.78
2022-11-27T03:11:23.416Z,99201.16
2022-11-27T03:13:54.835Z,99196.84
2022-11-27T03:17:03.237Z,99201.66
2022-11-27T03:19:42.983Z,99189.00
2022-11-27T03:22:10.703Z,99182.41
2022-11-27T03:24:37.610Z,99184.41
2022-11-27T03:27:07.080Z,99179.97
2022-11-27T03:29:39.444Z,99184.06
2022-11-27T03:32:06.021Z,99175.13
2022-11-27T03:34:33.363Z,99179.63
2022-11-27T03:37:00.795Z,99176.63
2022-11-27T03:39:28.912Z,99171.69
2022-11-27T03:42:05.557Z,99172.63
2022-11-27T03:44:48.297Z,99172.63
2022-11-27T03:47:35.465Z,99172.88
2022-11-27T03:50:14.294Z,99173.72
2022-11-27T03:52:56.049Z,99178.56
2022-11-27T03:55:44.327Z,99165.41
2022-11-27T03:58:29.349Z,99163.56
2022-11-27T04:01:00.376Z,99154.94
2022-11-27T04:03:30.871Z,99159.31
2022-11-27T04:05:57.736Z,99157.03
2022-11-27T04:08:24.240Z,99153.13
2022-11-27T04:10:50.789Z,99153.31
2022-11-27T04:13:17.260Z,99150.31
2022-11-27T04:15:43.803Z,99150.94
2022-11-27T04:18:11.511Z,99140.44
2022-11-27T04:20:38.112Z,99147.75
2022-11-27T04:23:04.774Z,99137.13
2022-11-27T04:25:32.368Z,99134.50
2022-11-27T04:27:58.866Z,99139.78
2022-11-27T04:30:25.290Z,99131.56
2022-11-27T04:32:51.802Z,99126.94
2022-11-27T04:35:18.316Z,99122.41
2022-11-27T04:37:44.807Z,99124.91
2022-11-27T04:40:12.056Z,99126.03
2022-11-27T04:42:38.511Z,99119.94
2022-11-27T04:45:05.627Z,99119.22
2022-11-27T04:47:32.080Z,99122.41
2022-11-27T04:49:58.527Z,99131.00
2022-11-27T04:52:24.975Z,99131.22
2022-11-27T04:54:55.364Z,99120.50
2022-11-27T04:57:25.048Z,99131.25
2022-11-27T04:59:51.537Z,99125.31
2022-11-27T05:02:18.044Z,99119.94
2022-11-27T05:04:45.158Z,99132.66
2022-11-27T05:07:11.704Z,99129.94
2022-11-27T05:09:38.189Z,99131.31
2022-11-27T05:12:04.928Z,99128.94
2022-11-27T05:14:31.560Z,99125.00
2022-11-27T05:16:59.112Z,99133.78
2022-11-27T05:19:28.361Z,99127.53
2022-11-27T05:21:56.728Z,99117.97
2022-11-27T05:24:25.764Z,99116.47
2022-11-27T05:26:53.065Z,99119.28
2022-11-27T05:29:20.268Z,99127.53
2022-11-27T05:31:47.144Z,99133.13
2022-11-27T05:34:14.752Z,99139.00
2022-11-27T05:36:41.788Z,99130.78
2022-11-27T05:39:09.760Z,99131.88
2022-11-27T05:41:38.272Z,99116.88
2022-11-27T05:44:06.377Z,99118.19
2022-11-27T05:46:33.481Z,99110.28
2022-11-27T05:49:00.131Z,99101.09
2022-11-27T05:51:26.650Z,99101.72
2022-11-27T05:53:53.073Z,99103.81
2022-11-27T05:56:19.626Z,99101.19
2022-11-27T05:58:47.643Z,99072.38
2022-11-27T06:01:16.204Z,99084.81
2022-11-27T06:03:42.768Z,99095.91
2022-11-27T06:06:13.299Z,99088.59
2022-11-27T06:08:40.943Z,99100.28
2022-11-27T06:11:09.177Z,99081.66
2022-11-27T06:13:36.393Z,99089.94
2022-11-27T06:16:14.774Z,99097.00
2022-11-27T06:18:41.289Z,99102.94
2022-11-27T06:21:09.463Z,99093.25
2022-11-27T06:23:36.514Z,99090.47
2022-11-27T06:26:14.270Z,99089.31
2022-11-27T06:28:41.176Z,99090.94
2022-11-27T06:31:17.576Z,99088.69
2022-11-27T06:33:44.732Z,99072.88
2022-11-27T06:36:11.346Z,99073.81
2022-11-27T06:38:38.337Z,99064.84
2022-11-27T06:41:10.537Z,99050.91
2022-11-27T06:43:37.499Z,99038.41
2022-11-27T06:46:06.098Z,99040.56
2022-11-27T06:48:34.004Z,99033.28
2022-11-27T06:51:01.915Z,98997.16
2022-11-27T06:53:30.144Z,99041.31
2022-11-27T06:55:57.011Z,99053.81
2022-11-27T06:58:29.400Z,99068.28
2022-11-27T07:00:59.262Z,99059.44
2022-11-27T07:03:26.745Z,99052.50
2022-11-27T07:05:53.721Z,99054.13
2022-11-27T07:08:20.971Z,99041.59
2022-11-27T07:10:47.542Z,99033.03
2022-11-27T07:13:14.042Z,99024.34
2022-11-27T07:15:40.466Z,99029.66
2022-11-27T07:18:06.994Z,99019.97
2022-11-27T07:20:33.453Z,99011.00
2022-11-27T07:23:00.000Z,99008.72
2022-11-27T07:25:32.500Z,99003.56
2022-11-27T07:27:58.990Z,99002.06
2022-11-27T07:30:25.450Z,99009.63
2022-11-27T07:32:51.863Z,99016.63
2022-11-27T07:35:18.530Z,99020.59
2022-11-27T07:37:44.957Z,99026.50
2022-11-27T07:40:13.041Z,99023.88
2022-11-27T07:42:41.181Z,99028.56
2022-11-27T07:45:08.584Z,99027.63
2022-11-27T07:47:35.361Z,99025.59
2022-11-27T07:50:02.010Z,99016.72
2022-11-27T07:52:28.535Z,99008.66
2022-11-27T07:54:55.023Z,99006.81
2022-11-27T07:57:21.515Z,99012.41
2022-11-27T07:59:48.166Z,99004.88
2022-11-27T08:02:14.930Z,98953.25
2022-11-27T08:04:41.842Z,98983.31
2022-11-27T08:07:08.592Z,98985.84
2022-11-27T08:09:35.058Z,98986.03
2022-11-27T08:12:01.526Z,98984.94
2022-11-27T08:14:28.040Z,98960.44
2022-11-27T08:16:54.640Z,98983.91
2022-11-27T08:19:22.353Z,98981.31
2022-11-27T08:21:48.821Z,98984.66
2022-11-27T08:24:15.433Z,98983.97
2022-11-27T08:26:41.946Z,99000.97
2022-11-27T08:29:11.551Z,98997.50
2022-11-27T08:31:38.463Z,99009.72
2022-11-27T08:34:05.108Z,99007.09
2022-11-27T08:36:32.547Z,99019.28
2022-11-27T08:38:59.169Z,99019.47
2022-11-27T08:41:25.672Z,99012.69
2022-11-27T08:43:52.105Z,99008.22
2022-11-27T08:46:18.710Z,99007.72
2022-11-27T08:48:45.217Z,99006.25
2022-11-27T08:51:15.260Z,98996.34
2022-11-27T08:53:45.435Z,98983.13
2022-11-27T08:56:21.311Z,98977.38
2022-11-27T08:58:48.596Z,98965.97
2022-11-27T09:01:18.685Z,98967.78
2022-11-27T09:03:46.051Z,98972.75
2022-11-27T09:06:16.184Z,98969.44
2022-11-27T09:08:43.603Z,98952.91
2022-11-27T09:11:11.325Z,98958.97
2022-11-27T09:13:40.045Z,98954.16
2022-11-27T09:16:12.401Z,98949.97
2022-11-27T09:18:39.201Z,98952.47
2022-11-27T09:21:10.851Z,98950.91
2022-11-27T09:23:38.460Z,98942.72
2022-11-27T09:26:10.531Z,98938.72
2022-11-27T09:28:38.168Z,98924.59
2022-11-27T09:31:06.514Z,98926.56
2022-11-27T09:33:35.234Z,98921.06
2022-11-27T09:36:10.435Z,98937.63
2022-11-27T09:38:37.688Z,98929.75
2022-11-27T09:41:10.425Z,98928.50
2022-11-27T09:43:44.493Z,98940.31
2022-11-27T09:46:17.501Z,98932.47
2022-11-27T09:48:48.339Z,98923.00
2022-11-27T09:51:48.043Z,98928.09
2022-11-27T09:54:46.760Z,98929.75
2022-11-27T09:57:21.975Z,98925.06
2022-11-27T09:59:53.590Z,98935.66
2022-11-27T10:02:48.117Z,98920.31
2022-11-27T10:05:24.201Z,98922.13
2022-11-27T10:08:28.967Z,98924.25
2022-11-27T10:11:11.720Z,98919.44
2022-11-27T10:14:10.685Z,98915.75
2022-11-27T10:16:44.748Z,98894.19
2022-11-27T10:19:23.302Z,98883.97
2022-11-27T10:21:59.560Z,98883.34
2022-11-27T10:24:41.565Z,98865.13
2022-11-27T10:27:29.230Z,98857.03
2022-11-27T10:29:57.552Z,98852.09
2022-11-27T10:32:54.524Z,98840.78
2022-11-27T10:35:22.255Z,98830.72
2022-11-27T10:38:06.827Z,98834.16
2022-11-27T10:40:42.224Z,98822.38
2022-11-27T10:43:24.134Z,98818.47
2022-11-27T10:46:09.133Z,98821.22
2022-11-27T10:48:35.743Z,98824.41
2022-11-27T10:51:02.236Z,98829.41
2022-11-27T10:53:35.421Z,98822.38
2022-11-27T10:56:04.867Z,98838.47
2022-11-27T10:58:41.840Z,98830.63
2022-11-27T11:01:13.928Z,98820.81
2022-11-27T11:03:40.679Z,98817.28
2022-11-27T11:06:23.012Z,98815.03
2022-11-27T11:09:15.188Z,98803.28
2022-11-27T11:11:41.738Z,98806.94
2022-11-27T11:14:19.115Z,98788.94
2022-11-27T11:16:46.259Z,98786.47
2022-11-27T11:19:30.952Z,98778.00
2022-11-27T11:21:59.562Z,98768.03
2022-11-27T11:24:29.648Z,98762.09
2022-11-27T11:27:01.753Z,98766.13
2022-11-27T11:29:38.765Z,98758.56
2022-11-27T11:32:28.166Z,98764.09
2022-11-27T11:35:01.124Z,98758.31
2022-11-27T11:37:38.517Z,98752.00
2022-11-27T11:40:16.318Z,98752.75
2022-11-27T11:42:54.206Z,98732.34
2022-11-27T11:45:22.485Z,98725.88
2022-11-27T11:47:54.750Z,98731.47
2022-11-27T11:51:05.581Z,98719.09
2022-11-27T11:53:35.330Z,98724.81
2022-11-27T11:56:23.019Z,98723.84
2022-11-27T11:59:00.368Z,98723.31
2022-11-27T12:01:45.267Z,98725.75
2022-11-27T12:04:30.042Z,98730.13
2022-11-27T12:07:06.322Z,98734.44
2022-11-27T12:10:06.150Z,98733.22
2022-11-27T12:12:51.032Z,98724.63
2022-11-27T12:15:33.378Z,98719.16
2022-11-27T12:18:21.190Z,98716.53
2022-11-27T12:21:15.312Z,98707.34
2022-11-27T12:24:01.120Z,98693.84
2022-11-27T12:26:38.588Z,98692.72
2022-11-27T12:29:23.811Z,98688.66
2022-11-27T12:31:56.420Z,98688.66
2022-11-27T12:34:27.785Z,98685.38
2022-11-27T12:37:16.311Z,98680.94
2022-11-27T12:40:11.826Z,98683.75
2022-11-27T12:42:53.571Z,98686.00
2022-11-27T12:45:27.459Z,98693.97
2022-11-27T12:47:58.854Z,98682.16
2022-11-27T12:50:45.417Z,98680.50
2022-11-27T12:53:42.868Z,98676.84
2022-11-27T12:56:18.575Z,98662.94
2022-11-27T12:58:50.938Z,98661.50
2022-11-27T13:01:26.781Z,98665.00
2022-11-27T13:04:15.376Z,98658.41
2022-11-27T13:07:03.317Z,98655.53
2022-11-27T13:10:02.796Z,98646.06
2022-11-27T13:12:37.595Z,98633.72
2022-11-27T13:15:15.332Z,98647.63
2022-11-27T13:17:44.430Z,98643.94
2022-11-27T13:20:23.884Z,98654.19
2022-11-27T13:22:50.999Z,98658.50
2022-11-27T13:25:17.606Z,98658.31
2022-11-27T13:27:49.220Z,98652.34
2022-11-27T13:30:31.790Z,98633.09
2022-11-27T13:33:03.631Z,98627.31
2022-11-27T13:35:38.311Z,98616.47
2022-11-27T13:38:10.849Z,98610.28
2022-11-27T13:41:00.156Z,98592.47
2022-11-27T13:43:43.258Z,98579.31
2022-11-27T13:46:25.026Z,98579.97
2022-11-27T13:49:03.665Z,98573.44
2022-11-27T13:51:33.894Z,98554.03
2022-11-27T13:54:12.038Z,98557.53
2022-11-27T13:56:39.576Z,98565.66
2022-11-27T13:59:16.757Z,98549.66
2022-11-27T14:01:53.620Z,98540.72
2022-11-27T14:04:20.197Z,98518.59
2022-11-27T14:06:54.234Z,98541.09
2022-11-27T14:09:42.557Z,98527.44
2022-11-27T14:12:15.084Z,98532.59
2022-11-27T14:14:43.695Z,98529.16
2022-11-27T14:17:37.265Z,98532.78
2022-11-27T14:20:23.397Z,98524.97
2022-11-27T14:23:12.916Z,98523.41
2022-11-27T14:25:41.240Z,98522.72
2022-11-27T14:28:21.797Z,98527.38
2022-11-27T14:30:52.853Z,98523.53
2022-11-27T14:33:22.927Z,98525.81
2022-11-27T14:35:55.783Z,98519.44
2022-11-27T14:38:24.119Z,98507.34
2022-11-27T14:40:55.783Z,98508.00
2022-11-27T14:43:25.916Z,98508.06
2022-11-27T14:45:55.932Z,98501.50
2022-11-27T14:48:41.518Z,98496.84
2022-11-27T14:51:14.020Z,98491.44
2022-11-27T14:53:41.243Z,98492.06
2022-11-27T14:56:08.069Z,98484.00
2022-11-27T14:58:35.166Z,98490.09
2022-11-27T15:01:05.639Z,98478.31
2022-11-27T15:03:33.289Z,98492.91
2022-11-27T15:06:05.710Z,98483.59
2022-11-27T15:08:36.236Z,98502.06
2022-11-27T15:11:05.236Z,98496.13
2022-11-27T15:13:37.240Z,98486.88
2022-11-27T15:16:07.374Z,98481.19
2022-11-27T15:18:37.089Z,98491.00
2022-11-27T15:21:17.628Z,98486.53
2022-11-27T15:23:46.723Z,98480.41
2022-11-27T15:26:25.714Z,98472.28
2022-11-27T15:28:58.964Z,98465.47
2022-11-27T15:31:30.101Z,98459.06
2022-11-27T15:34:15.348Z,98447.84
2022-11-27T15:36:44.128Z,98450.88
2022-11-27T15:39:24.655Z,98446.59
2022-11-27T15:42:02.357Z,98443.88
2022-11-27T15:44:32.393Z,98442.31
2022-11-27T15:47:01.479Z,98441.44
2022-11-27T15:49:28.780Z,98459.09
2022-11-27T15:51:56.614Z,98457.09
2022-11-27T15:54:24.113Z,98440.69
2022-11-27T15:56:50.799Z,98446.25
2022-11-27T15:59:20.372Z,98445.47
2022-11-27T16:01:47.001Z,98446.75
2022-11-27T16:04:13.472Z,98444.34
2022-11-27T16:06:40.077Z,98433.84
2022-11-27T16:09:06.673Z,98444.00
2022-11-27T16:11:33.139Z,98437.44
2022-11-27T16:13:59.703Z,98442.69
2022-11-27T16:16:26.745Z,98434.88
2022-11-27T16:18:56.970Z,98435.19
2022-11-27T16:21:29.242Z,98423.28
2022-11-27T16:24:03.536Z,98425.16
2022-11-27T16:26:30.946Z,98423.06
2022-11-27T16:28:57.984Z,98430.19
2022-11-27T16:31:26.493Z,98432.31
2022-11-27T16:33:53.129Z,98428.44
2022-11-27T16:36:22.971Z,98416.91
2022-11-27T16:38:52.423Z,98413.69
2022-11-27T16:41:19.285Z,98406.38
2022-11-27T16:43:48.861Z,98415.72
2022-11-27T16:46:26.192Z,98388.59
2022-11-27T16:48:54.301Z,98402.06
2022-11-27T16:51:32.171Z,98397.19
2022-11-27T16:54:04.757Z,98356.25
2022-11-27T16:56:32.718Z,98386.59
2022-11-27T16:59:03.131Z,98384.38
2022-11-27T17:01:36.687Z,98367.84
2022-11-27T17:04:09.124Z,98371.09
2022-11-27T17:06:37.976Z,98368.81
2022-11-27T17:09:07.467Z,98364.09
2022-11-27T17:11:35.923Z,98360.50
2022-11-27T17:14:06.807Z,98371.41
2022-11-27T17:16:35.372Z,98358.22
2022-11-27T17:19:03.638Z,98348.97
2022-11-27T17:21:33.359Z,98337.06
2022-11-27T17:24:02.167Z,98343.13
2022-11-27T17:26:35.107Z,98352.56
2022-11-27T17:29:03.356Z,98344.00
2022-11-27T17:31:37.005Z,98337.41
2022-11-27T17:34:05.165Z,98343.56
2022-11-27T17:36:37.144Z,98335.31
2022-11-27T17:39:06.910Z,98326.00
2022-11-27T17:41:34.569Z,98320.44
2022-11-27T17:44:04.218Z,98319.19
2022-11-27T17:46:32.291Z,98324.53
2022-11-27T17:49:00.261Z,98308.38
2022-11-27T17:51:30.183Z,98310.13
2022-11-27T17:54:01.741Z,98300.69
2022-11-27T17:56:31.109Z,98295.34
2022-11-27T17:58:59.708Z,98295.34
2022-11-27T18:01:29.003Z,98294.41
2022-11-27T18:03:59.737Z,98275.50
2022-11-27T18:06:27.188Z,98272.13
2022-11-27T18:08:55.825Z,98278.28
2022-11-27T18:11:27.740Z,98278.19
2022-11-27T18:13:56.128Z,98272.31
2022-11-27T18:16:31.731Z,98266.19
2022-11-27T18:19:01.819Z,98261.88
2022-11-27T18:21:28.613Z,98257.47
2022-11-27T18:29:28.772Z,98249.94
2022-11-27T18:31:55.314Z,98245.41
2022-11-27T18:34:21.799Z,98244.25
2022-11-27T18:36:48.240Z,98244.59
2022-11-27T18:39:15.093Z,98238.41
2022-11-27T18:41:41.558Z,98234.75
2022-11-27T18:44:10.073Z,98223.69
2022-11-27T18:46:38.250Z,98219.16
2022-11-27T18:49:05.463Z,98227.91
2022-11-27T18:51:32.271Z,98223.75
2022-11-27T18:53:58.873Z,98224.00
2022-11-27T18:56:28.480Z,98221.56
2022-11-27T18:58:55.869Z,98227.28
2022-11-27T19:01:27.878Z,98218.06
2022-11-27T19:03:55.403Z,98217.94
2022-11-27T19:06:26.402Z,98216.69
2022-11-27T19:08:52.921Z,98210.88
2022-11-27T19:11:22.132Z,98206.63
2022-11-27T19:13:49.969Z,98207.25
2022-11-27T19:16:29.723Z,98202.19
2022-11-27T19:19:01.346Z,98203.69
2022-11-27T19:21:30.481Z,98204.47
2022-11-27T19:23:59.176Z,98201.66
2022-11-27T19:26:28.368Z,98199.78
2022-11-27T19:28:57.004Z,98205.06
2022-11-27T19:31:25.579Z,98203.16
2022-11-27T19:34:00.370Z,98201.78
2022-11-27T19:36:32.289Z,98206.06
2022-11-27T19:39:01.827Z,98195.84
2022-11-27T19:41:30.695Z,98194.03
2022-11-27T19:44:01.225Z,98191.59
2022-11-27T19:46:29.848Z,98190.56
2022-11-27T19:49:01.484Z,98189.69
2022-11-27T19:51:31.924Z,98184.22
2022-11-27T19:54:01.801Z,98183.78
2022-11-27T19:56:33.497Z,98182.59
2022-11-27T19:59:02.110Z,98163.22
2022-11-27T20:01:29.199Z,98160.19
2022-11-27T20:03:55.871Z,98165.25
2022-11-27T20:06:26.145Z,98171.16
2022-11-27T20:08:57.321Z,98154.81
2022-11-27T20:11:26.662Z,98146.03
2022-11-27T20:13:59.616Z,98162.28
2022-11-27T20:16:27.466Z,98152.91
2022-11-27T20:18:54.657Z,98157.56
2022-11-27T20:21:25.152Z,98148.91
2022-11-27T20:23:52.710Z,98162.38
2022-11-27T20:26:22.275Z,98150.03
2022-11-27T20:28:49.941Z,98147.16
2022-11-27T20:31:25.765Z,98145.97
2022-11-27T20:33:56.600Z,98143.91
2022-11-27T20:36:24.909Z,98152.91
2022-11-27T20:38:52.106Z,98141.13
2022-11-27T20:41:21.025Z,98137.84
2022-11-27T20:43:50.655Z,98129.47
2022-11-27T20:46:17.972Z,98127.50
2022-11-27T20:48:52.831Z,98132.56
2022-11-27T20:51:22.795Z,98117.66
2022-11-27T20:53:49.939Z,98132.56
2022-11-27T20:56:19.546Z,98130.16
2022-11-27T20:58:47.461Z,98124.06
2022-11-27T21:01:22.900Z,98132.22
2022-11-27T21:03:51.378Z,98135.44
2022-11-27T21:06:20.714Z,98136.31
2022-11-27T21:08:48.579Z,98125.38
2022-11-27T21:11:18.513Z,98121.28
2022-11-27T21:13:45.111Z,98120.44
2022-11-27T21:16:14.293Z,98106.56
2022-11-27T21:18:41.102Z,98113.00
2022-11-27T21:21:09.492Z,98109.44
2022-11-27T21:23:37.907Z,98103.59
2022-11-27T21:26:05.885Z,98103.13
2022-11-27T21:28:33.016Z,98098.03
2022-11-27T21:31:07.684Z,98061.69
2022-11-27T21:33:35.704Z,98080.53
2022-11-27T21:36:03.240Z,98079.31
2022-11-27T21:38:29.949Z,98069.78
2022-11-27T21:40:57.195Z,98074.84
2022-11-27T21:43:23.733Z,98079.31
2022-11-27T21:45:51.119Z,98073.66
2022-11-27T21:48:18.333Z,98074.00
2022-11-27T21:50:44.861Z,98078.09
2022-11-27T21:53:11.402Z,98080.16
2022-11-27T21:55:42.240Z,98092.00
2022-11-27T21:58:08.973Z,98080.22
2022-11-27T22:00:36.771Z,98095.25
2022-11-27T22:03:03.410Z,98085.91
2022-11-27T22:05:30.024Z,98075.97
2022-11-27T22:07:56.550Z,98070.16
2022-11-27T22:10:23.028Z,98062.63
2022-11-27T22:12:49.565Z,98056.09
2022-11-27T22:15:16.201Z,98033.94
2022-11-27T22:17:42.628Z,98031.81
2022-11-27T22:20:09.371Z,98028.81
2022-11-27T22:22:35.868Z,98032.66
2022-11-27T22:25:04.520Z,98024.34
2022-11-27T22:27:31.153Z,98032.50
2022-11-27T22:29:57.574Z,98029.66
2022-11-27T22:32:23.979Z,98029.44
2022-11-27T22:34:51.043Z,98020.34
2022-11-27T22:37:17.620Z,98025.63
2022-11-27T22:39:44.448Z,98009.38
2022-11-27T22:42:12.165Z,98012.78
2022-11-27T22:44:39.119Z,98007.66
2022-11-27T22:47:05.881Z,98008.09
2022-11-27T22:49:32.539Z,98003.63
2022-11-27T22:51:59.272Z,98007.28
2022-11-27T22:54:25.795Z,98009.09
2022-11-27T22:56:54.020Z,97991.78
2022-11-27T22:59:36.834Z,98001.16
2022-11-27T23:02:05.285Z,98004.34
2022-11-27T23:04:33.377Z,98001.94
2022-11-27T23:07:00.228Z,97994.63
2022-11-27T23:09:28.404Z,97998.06
2022-11-27T23:11:56.363Z,97981.19
2022-11-27T23:14:23.997Z,97992.38
2022-11-27T23:16:50.492Z,97987.50
2022-11-27T23:19:17.345Z,97985.22
2022-11-27T23:21:44.389Z,97988.03
2022-11-27T23:24:15.139Z,97980.75
2022-11-27T23:26:42.778Z,97978.22
2022-11-27T23:29:09.287Z,97974.72
2022-11-27T23:31:36.418Z,97966.03
2022-11-27T23:34:07.356Z,97967.63
2022-11-27T23:36:34.847Z,97963.97
2022-11-27T23:39:03.057Z,97969.72
2022-11-27T23:41:29.987Z,97973.34
2022-11-27T23:43:56.978Z,97981.72
2022-11-27T23:46:26.661Z,97967.22
2022-11-27T23:48:54.938Z,97972.13
2022-11-27T23:51:25.756Z,97968.06
2022-11-27T23:53:53.180Z,97973.50
2022-11-27T23:56:22.569Z,97961.88
2022-11-27T23:58:49.391Z,97974.09
